Weather Data

Pearl Creek Farm: 8878 N Farm Road 75, Walnut Grove MO 65770

<== Previous Day (Monday 21 Aug 2017) | Next Day (Wednesday 23 Aug 2017) ==>

Summary Precipitation Data For Tuesday 22 August 2017

ElementValueUnits
Precipitation1.8"
NotesSome of this rain fell early this morning. At least some probably fell while we were away viewing the eclipse. This observation includes multiple day totals starting on 21 August 2017.
SourcePearl Creek Farm

Summary Temperature Data For Tuesday 22 August 2017

ElementValueUnits
High Temperature83 oF
Low Temperature67 oF
Average Temperature75 oF
High Humidity100 %
Low Humidity65 %
Average Humidity85 %
SourceSpringfield-Branson National Airport (SGF)

Detail Temperature Data For Tuesday 22 August 2017

Date / TimeTemp (F)RH (%)Dew Pt (F)Report Date / TimeSource
2017-08-22 05:52:00 69 100 69.0 2017-12-29 17:00:26.17417 Springfield-Branson National Airport (SGF)
2017-08-22 06:52:00 68 100 68.0 2017-12-29 17:00:26.17417 Springfield-Branson National Airport (SGF)
2017-08-22 07:52:00 67 100 67.0 2017-12-29 17:00:26.17417 Springfield-Branson National Airport (SGF)
2017-08-22 08:52:00 67 100 67.0 2017-12-29 17:00:26.17417 Springfield-Branson National Airport (SGF)
2017-08-22 00:52:00 78 87 74.0 2017-12-29 17:00:26.17417 Springfield-Branson National Airport (SGF)
2017-08-22 01:52:00 78 85 73.0 2017-12-29 17:00:26.17417 Springfield-Branson National Airport (SGF)
2017-08-22 02:52:00 78 85 73.0 2017-12-29 17:00:26.17417 Springfield-Branson National Airport (SGF)
2017-08-22 03:52:00 77 85 72.0 2017-12-29 17:00:26.17417 Springfield-Branson National Airport (SGF)
2017-08-22 04:52:00 77 85 72.0 2017-12-29 17:00:26.17417 Springfield-Branson National Airport (SGF)
2017-08-22 09:52:00 67 100 67.0 2017-12-29 17:00:26.17417 Springfield-Branson National Airport (SGF)
2017-08-22 10:52:00 69 100 69.0 2017-12-29 17:00:26.17417 Springfield-Branson National Airport (SGF)
2017-08-22 11:52:00 76 82 70.0 2017-12-29 17:00:26.17417 Springfield-Branson National Airport (SGF)
2017-08-22 12:52:00 81 67 69.0 2017-12-29 17:00:26.17417 Springfield-Branson National Airport (SGF)
2017-08-22 13:52:00 83 65 70.0 2017-12-29 17:00:26.17417 Springfield-Branson National Airport (SGF)
2017-08-22 14:52:00 81 69 70.0 2017-12-29 17:00:26.17417 Springfield-Branson National Airport (SGF)
2017-08-22 15:52:00 81 67 69.0 2017-12-29 17:00:26.17417 Springfield-Branson National Airport (SGF)
2017-08-22 16:52:00 79 77 71.0 2017-12-29 17:00:26.17417 Springfield-Branson National Airport (SGF)
2017-08-22 17:52:00 78 82 72.0 2017-12-29 17:00:26.17417 Springfield-Branson National Airport (SGF)
2017-08-22 18:52:00 77 85 72.0 2017-12-29 17:00:26.17417 Springfield-Branson National Airport (SGF)
2017-08-22 19:52:00 76 88 72.0 2017-12-29 17:00:26.17417 Springfield-Branson National Airport (SGF)
2017-08-22 20:52:00 74 82 68.0 2017-12-29 17:00:26.17417 Springfield-Branson National Airport (SGF)
2017-08-22 21:52:00 73 79 66.0 2017-12-29 17:00:26.17417 Springfield-Branson National Airport (SGF)
2017-08-22 22:52:00 70 82 64.0 2017-12-29 17:00:26.17417 Springfield-Branson National Airport (SGF)
2017-08-22 23:52:00 68 87 64.0 2017-12-29 17:00:26.17417 Springfield-Branson National Airport (SGF)

A total of 24 rows are displayed.